sensor_id;sensor_type;location;lat;lon;timestamp;temperature;humidity
4677;DHT22;2352;48.180;11.478;2023-01-28T00:01:42;3.70;97.00
4677;DHT22;2352;48.180;11.478;2023-01-28T00:04:45;3.80;97.00
4677;DHT22;2352;48.180;11.478;2023-01-28T00:07:48;3.80;97.00
4677;DHT22;2352;48.180;11.478;2023-01-28T00:10:51;3.80;97.00
4677;DHT22;2352;48.180;11.478;2023-01-28T00:13:55;3.80;97.10
4677;DHT22;2352;48.180;11.478;2023-01-28T00:16:58;3.80;97.30
4677;DHT22;2352;48.180;11.478;2023-01-28T00:20:01;3.80;97.00
4677;DHT22;2352;48.180;11.478;2023-01-28T00:23:04;3.80;97.10
4677;DHT22;2352;48.180;11.478;2023-01-28T00:26:09;3.80;97.10
4677;DHT22;2352;48.180;11.478;2023-01-28T00:29:14;3.80;97.00
4677;DHT22;2352;48.180;11.478;2023-01-28T00:32:17;3.80;97.10
4677;DHT22;2352;48.180;11.478;2023-01-28T00:35:20;3.80;97.00
4677;DHT22;2352;48.180;11.478;2023-01-28T00:38:22;3.90;97.00
4677;DHT22;2352;48.180;11.478;2023-01-28T00:41:27;3.80;97.00
4677;DHT22;2352;48.180;11.478;2023-01-28T00:44:31;3.80;97.30
4677;DHT22;2352;48.180;11.478;2023-01-28T00:47:34;3.80;97.10
4677;DHT22;2352;48.180;11.478;2023-01-28T00:50:37;3.80;97.30
4677;DHT22;2352;48.180;11.478;2023-01-28T00:53:40;3.80;97.20
4677;DHT22;2352;48.180;11.478;2023-01-28T00:56:43;3.80;97.20
4677;DHT22;2352;48.180;11.478;2023-01-28T00:59:48;3.80;97.40
4677;DHT22;2352;48.180;11.478;2023-01-28T01:02:51;3.80;96.90
4677;DHT22;2352;48.180;11.478;2023-01-28T01:05:56;3.80;97.00
4677;DHT22;2352;48.180;11.478;2023-01-28T01:09:00;3.80;97.20
4677;DHT22;2352;48.180;11.478;2023-01-28T01:12:03;3.80;97.30
4677;DHT22;2352;48.180;11.478;2023-01-28T01:15:08;3.80;97.10
4677;DHT22;2352;48.180;11.478;2023-01-28T01:18:12;3.80;97.00
4677;DHT22;2352;48.180;11.478;2023-01-28T01:21:16;3.70;97.20
4677;DHT22;2352;48.180;11.478;2023-01-28T01:24:19;3.70;97.30
4677;DHT22;2352;48.180;11.478;2023-01-28T01:27:22;3.70;97.50
4677;DHT22;2352;48.180;11.478;2023-01-28T01:30:26;3.80;97.40
4677;DHT22;2352;48.180;11.478;2023-01-28T01:33:30;3.70;97.10
4677;DHT22;2352;48.180;11.478;2023-01-28T01:36:33;3.80;96.90
4677;DHT22;2352;48.180;11.478;2023-01-28T01:39:36;3.70;97.10
4677;DHT22;2352;48.180;11.478;2023-01-28T01:42:39;3.80;97.20
4677;DHT22;2352;48.180;11.478;2023-01-28T01:45:44;3.80;97.40
4677;DHT22;2352;48.180;11.478;2023-01-28T01:48:49;3.80;97.20
4677;DHT22;2352;48.180;11.478;2023-01-28T01:51:56;3.70;97.20
4677;DHT22;2352;48.180;11.478;2023-01-28T01:55:05;3.70;97.10
4677;DHT22;2352;48.180;11.478;2023-01-28T01:58:11;3.70;97.20
4677;DHT22;2352;48.180;11.478;2023-01-28T02:01:17;3.80;97.20
4677;DHT22;2352;48.180;11.478;2023-01-28T02:04:25;3.80;97.00
4677;DHT22;2352;48.180;11.478;2023-01-28T02:07:29;3.70;97.00
4677;DHT22;2352;48.180;11.478;2023-01-28T02:10:32;3.70;97.00
4677;DHT22;2352;48.180;11.478;2023-01-28T02:13:38;3.70;97.30
4677;DHT22;2352;48.180;11.478;2023-01-28T02:16:43;3.70;97.30
4677;DHT22;2352;48.180;11.478;2023-01-28T02:19:52;3.70;97.30
4677;DHT22;2352;48.180;11.478;2023-01-28T02:23:15;3.70;97.10
4677;DHT22;2352;48.180;11.478;2023-01-28T02:26:41;3.70;96.90
4677;DHT22;2352;48.180;11.478;2023-01-28T02:29:56;3.60;97.10
4677;DHT22;2352;48.180;11.478;2023-01-28T02:33:03;3.60;97.10
4677;DHT22;2352;48.180;11.478;2023-01-28T02:36:16;3.60;97.10
4677;DHT22;2352;48.180;11.478;2023-01-28T02:39:22;3.50;97.20
4677;DHT22;2352;48.180;11.478;2023-01-28T02:42:28;3.60;97.50
4677;DHT22;2352;48.180;11.478;2023-01-28T02:45:34;3.50;97.40
4677;DHT22;2352;48.180;11.478;2023-01-28T02:48:51;3.50;97.40
4677;DHT22;2352;48.180;11.478;2023-01-28T02:52:21;3.50;97.50
4677;DHT22;2352;48.180;11.478;2023-01-28T02:55:52;3.50;97.30
4677;DHT22;2352;48.180;11.478;2023-01-28T02:59:00;3.50;97.30
4677;DHT22;2352;48.180;11.478;2023-01-28T03:02:30;3.50;97.20
4677;DHT22;2352;48.180;11.478;2023-01-28T03:05:36;3.50;97.40
4677;DHT22;2352;48.180;11.478;2023-01-28T03:08:44;3.60;97.60
4677;DHT22;2352;48.180;11.478;2023-01-28T03:12:08;3.60;97.40
4677;DHT22;2352;48.180;11.478;2023-01-28T03:15:34;3.60;97.40
4677;DHT22;2352;48.180;11.478;2023-01-28T03:18:58;3.60;97.60
4677;DHT22;2352;48.180;11.478;2023-01-28T03:22:19;3.60;97.40
4677;DHT22;2352;48.180;11.478;2023-01-28T03:25:43;3.50;97.40
4677;DHT22;2352;48.180;11.478;2023-01-28T03:29:06;3.50;97.40
4677;DHT22;2352;48.180;11.478;2023-01-28T03:32:27;3.50;97.50
4677;DHT22;2352;48.180;11.478;2023-01-28T03:35:50;3.50;97.30
4677;DHT22;2352;48.180;11.478;2023-01-28T03:39:10;3.50;97.40
4677;DHT22;2352;48.180;11.478;2023-01-28T03:42:14;3.50;97.60
4677;DHT22;2352;48.180;11.478;2023-01-28T03:45:19;3.40;97.30
4677;DHT22;2352;48.180;11.478;2023-01-28T03:48:26;3.50;97.40
4677;DHT22;2352;48.180;11.478;2023-01-28T03:51:30;3.50;97.50
4677;DHT22;2352;48.180;11.478;2023-01-28T03:54:33;3.40;97.10
4677;DHT22;2352;48.180;11.478;2023-01-28T03:57:36;3.40;97.00
4677;DHT22;2352;48.180;11.478;2023-01-28T04:00:39;3.40;97.00
4677;DHT22;2352;48.180;11.478;2023-01-28T04:03:42;3.40;97.20
4677;DHT22;2352;48.180;11.478;2023-01-28T04:06:47;3.40;97.30
4677;DHT22;2352;48.180;11.478;2023-01-28T04:09:50;3.50;97.10
4677;DHT22;2352;48.180;11.478;2023-01-28T04:12:54;3.50;97.10
4677;DHT22;2352;48.180;11.478;2023-01-28T04:15:57;3.50;97.10
4677;DHT22;2352;48.180;11.478;2023-01-28T04:19:04;3.50;97.00
4677;DHT22;2352;48.180;11.478;2023-01-28T04:22:10;3.50;97.10
4677;DHT22;2352;48.180;11.478;2023-01-28T04:25:13;3.50;97.30
4677;DHT22;2352;48.180;11.478;2023-01-28T04:28:16;3.50;97.20
4677;DHT22;2352;48.180;11.478;2023-01-28T04:31:19;3.50;97.20
4677;DHT22;2352;48.180;11.478;2023-01-28T04:34:24;3.50;97.00
4677;DHT22;2352;48.180;11.478;2023-01-28T04:37:28;3.50;97.30
4677;DHT22;2352;48.180;11.478;2023-01-28T04:40:31;3.60;97.10
4677;DHT22;2352;48.180;11.478;2023-01-28T04:43:34;3.50;96.90
4677;DHT22;2352;48.180;11.478;2023-01-28T04:46:37;3.50;96.90
4677;DHT22;2352;48.180;11.478;2023-01-28T04:49:40;3.50;96.90
4677;DHT22;2352;48.180;11.478;2023-01-28T04:52:44;3.60;97.00
4677;DHT22;2352;48.180;11.478;2023-01-28T04:55:47;3.60;96.80
4677;DHT22;2352;48.180;11.478;2023-01-28T04:58:49;3.50;97.00
4677;DHT22;2352;48.180;11.478;2023-01-28T05:01:52;3.50;96.90
4677;DHT22;2352;48.180;11.478;2023-01-28T05:04:55;3.50;97.00
4677;DHT22;2352;48.180;11.478;2023-01-28T05:07:59;3.50;96.90
4677;DHT22;2352;48.180;11.478;2023-01-28T05:11:03;3.60;96.90
4677;DHT22;2352;48.180;11.478;2023-01-28T05:14:06;3.50;96.70
4677;DHT22;2352;48.180;11.478;2023-01-28T05:17:08;3.50;96.70
4677;DHT22;2352;48.180;11.478;2023-01-28T05:20:12;3.50;96.80
4677;DHT22;2352;48.180;11.478;2023-01-28T05:23:17;3.50;96.70
4677;DHT22;2352;48.180;11.478;2023-01-28T05:26:20;3.60;96.70
4677;DHT22;2352;48.180;11.478;2023-01-28T05:29:22;3.50;96.80
4677;DHT22;2352;48.180;11.478;2023-01-28T05:32:25;3.60;96.70
4677;DHT22;2352;48.180;11.478;2023-01-28T05:35:28;3.50;96.60
4677;DHT22;2352;48.180;11.478;2023-01-28T05:38:33;3.50;96.60
4677;DHT22;2352;48.180;11.478;2023-01-28T05:41:35;3.50;96.70
4677;DHT22;2352;48.180;11.478;2023-01-28T05:44:38;3.50;97.00
4677;DHT22;2352;48.180;11.478;2023-01-28T05:47:41;3.50;96.80
4677;DHT22;2352;48.180;11.478;2023-01-28T05:50:46;3.50;96.70
4677;DHT22;2352;48.180;11.478;2023-01-28T05:53:51;3.50;96.70
4677;DHT22;2352;48.180;11.478;2023-01-28T05:56:53;3.50;96.70
4677;DHT22;2352;48.180;11.478;2023-01-28T05:59:56;3.50;96.80
4677;DHT22;2352;48.180;11.478;2023-01-28T06:02:59;3.50;97.00
4677;DHT22;2352;48.180;11.478;2023-01-28T06:06:02;3.50;96.90
4677;DHT22;2352;48.180;11.478;2023-01-28T06:09:06;3.50;97.00
4677;DHT22;2352;48.180;11.478;2023-01-28T06:12:09;3.50;96.70
4677;DHT22;2352;48.180;11.478;2023-01-28T06:15:12;3.50;97.00
4677;DHT22;2352;48.180;11.478;2023-01-28T06:18:15;3.50;96.90
4677;DHT22;2352;48.180;11.478;2023-01-28T06:21:18;3.50;96.60
4677;DHT22;2352;48.180;11.478;2023-01-28T06:24:22;3.50;96.80
4677;DHT22;2352;48.180;11.478;2023-01-28T06:27:25;3.50;96.90
4677;DHT22;2352;48.180;11.478;2023-01-28T06:30:28;3.50;96.80
4677;DHT22;2352;48.180;11.478;2023-01-28T06:33:31;3.50;96.70
4677;DHT22;2352;48.180;11.478;2023-01-28T06:36:34;3.50;96.70
4677;DHT22;2352;48.180;11.478;2023-01-28T06:39:39;3.50;97.00
4677;DHT22;2352;48.180;11.478;2023-01-28T06:42:42;3.50;97.00
4677;DHT22;2352;48.180;11.478;2023-01-28T06:45:45;3.50;96.90
4677;DHT22;2352;48.180;11.478;2023-01-28T06:48:49;3.50;97.10
4677;DHT22;2352;48.180;11.478;2023-01-28T06:51:52;3.50;97.40
4677;DHT22;2352;48.180;11.478;2023-01-28T06:54:56;3.50;97.00
4677;DHT22;2352;48.180;11.478;2023-01-28T06:57:59;3.50;97.20
4677;DHT22;2352;48.180;11.478;2023-01-28T07:01:02;3.50;97.00
4677;DHT22;2352;48.180;11.478;2023-01-28T07:04:05;3.50;97.10
4677;DHT22;2352;48.180;11.478;2023-01-28T07:07:09;3.50;97.00
4677;DHT22;2352;48.180;11.478;2023-01-28T07:10:13;3.50;97.10
4677;DHT22;2352;48.180;11.478;2023-01-28T07:13:17;3.50;97.10
4677;DHT22;2352;48.180;11.478;2023-01-28T07:16:20;3.50;97.00
4677;DHT22;2352;48.180;11.478;2023-01-28T07:19:23;3.60;97.00
4677;DHT22;2352;48.180;11.478;2023-01-28T07:22:26;3.50;96.90
4677;DHT22;2352;48.180;11.478;2023-01-28T07:25:30;3.60;96.90
4677;DHT22;2352;48.180;11.478;2023-01-28T07:28:33;3.50;97.10
4677;DHT22;2352;48.180;11.478;2023-01-28T07:31:36;3.50;97.30
4677;DHT22;2352;48.180;11.478;2023-01-28T07:34:39;3.50;97.20
4677;DHT22;2352;48.180;11.478;2023-01-28T07:37:50;3.50;97.30
4677;DHT22;2352;48.180;11.478;2023-01-28T07:40:55;3.50;97.30
4677;DHT22;2352;48.180;11.478;2023-01-28T07:43:58;3.50;97.30
4677;DHT22;2352;48.180;11.478;2023-01-28T07:47:00;3.60;97.20
4677;DHT22;2352;48.180;11.478;2023-01-28T07:50:04;3.50;97.50
4677;DHT22;2352;48.180;11.478;2023-01-28T07:53:09;3.50;97.50
4677;DHT22;2352;48.180;11.478;2023-01-28T07:56:13;3.60;97.50
4677;DHT22;2352;48.180;11.478;2023-01-28T07:59:16;3.60;97.60
4677;DHT22;2352;48.180;11.478;2023-01-28T08:02:19;3.70;97.30
4677;DHT22;2352;48.180;11.478;2023-01-28T08:05:23;3.60;97.40
4677;DHT22;2352;48.180;11.478;2023-01-28T08:08:27;3.60;97.20
4677;DHT22;2352;48.180;11.478;2023-01-28T08:11:32;3.60;97.20
4677;DHT22;2352;48.180;11.478;2023-01-28T08:14:36;3.50;97.50
4677;DHT22;2352;48.180;11.478;2023-01-28T08:17:39;3.60;97.40
4677;DHT22;2352;48.180;11.478;2023-01-28T08:20:42;3.60;97.50
4677;DHT22;2352;48.180;11.478;2023-01-28T08:23:47;3.60;97.40
4677;DHT22;2352;48.180;11.478;2023-01-28T08:26:52;3.60;97.40
4677;DHT22;2352;48.180;11.478;2023-01-28T08:29:54;3.60;97.40
4677;DHT22;2352;48.180;11.478;2023-01-28T08:32:58;3.50;97.40
4677;DHT22;2352;48.180;11.478;2023-01-28T08:36:02;3.50;97.60
4677;DHT22;2352;48.180;11.478;2023-01-28T08:39:05;3.60;97.60
4677;DHT22;2352;48.180;11.478;2023-01-28T08:42:09;3.60;97.60
4677;DHT22;2352;48.180;11.478;2023-01-28T08:45:12;3.70;97.50
4677;DHT22;2352;48.180;11.478;2023-01-28T08:48:17;3.60;97.60
4677;DHT22;2352;48.180;11.478;2023-01-28T08:51:20;3.70;97.30
4677;DHT22;2352;48.180;11.478;2023-01-28T08:54:23;3.70;97.50
4677;DHT22;2352;48.180;11.478;2023-01-28T08:57:27;3.70;97.50
4677;DHT22;2352;48.180;11.478;2023-01-28T09:00:30;3.70;97.30
4677;DHT22;2352;48.180;11.478;2023-01-28T09:03:33;3.70;97.10
4677;DHT22;2352;48.180;11.478;2023-01-28T09:06:36;3.70;97.30
4677;DHT22;2352;48.180;11.478;2023-01-28T09:09:39;3.70;97.20
4677;DHT22;2352;48.180;11.478;2023-01-28T09:12:43;3.70;97.60
4677;DHT22;2352;48.180;11.478;2023-01-28T09:15:46;3.80;97.50
4677;DHT22;2352;48.180;11.478;2023-01-28T09:18:49;3.80;97.30
4677;DHT22;2352;48.180;11.478;2023-01-28T09:21:52;3.90;97.40
4677;DHT22;2352;48.180;11.478;2023-01-28T09:24:55;3.90;97.50
4677;DHT22;2352;48.180;11.478;2023-01-28T09:27:59;3.90;97.30
4677;DHT22;2352;48.180;11.478;2023-01-28T09:31:03;3.90;97.40
4677;DHT22;2352;48.180;11.478;2023-01-28T09:34:07;4.00;97.30
4677;DHT22;2352;48.180;11.478;2023-01-28T09:37:10;4.00;97.10
4677;DHT22;2352;48.180;11.478;2023-01-28T09:40:16;4.00;97.10
4677;DHT22;2352;48.180;11.478;2023-01-28T09:43:41;4.00;97.10
4677;DHT22;2352;48.180;11.478;2023-01-28T09:46:46;4.10;97.00
4677;DHT22;2352;48.180;11.478;2023-01-28T09:49:51;4.10;97.10
4677;DHT22;2352;48.180;11.478;2023-01-28T09:52:58;4.10;96.90
4677;DHT22;2352;48.180;11.478;2023-01-28T09:56:05;4.20;96.60
4677;DHT22;2352;48.180;11.478;2023-01-28T09:59:17;4.20;96.50
4677;DHT22;2352;48.180;11.478;2023-01-28T10:02:32;4.10;96.50
4677;DHT22;2352;48.180;11.478;2023-01-28T10:05:46;4.20;96.60
4677;DHT22;2352;48.180;11.478;2023-01-28T10:09:03;4.20;96.60
4677;DHT22;2352;48.180;11.478;2023-01-28T10:12:15;4.20;96.90
4677;DHT22;2352;48.180;11.478;2023-01-28T10:15:49;4.20;96.80
4677;DHT22;2352;48.180;11.478;2023-01-28T10:18:58;4.30;97.00
4677;DHT22;2352;48.180;11.478;2023-01-28T10:22:05;4.40;97.00
4677;DHT22;2352;48.180;11.478;2023-01-28T10:25:17;4.50;96.90
4677;DHT22;2352;48.180;11.478;2023-01-28T10:28:24;4.50;96.70
4677;DHT22;2352;48.180;11.478;2023-01-28T10:31:35;4.60;96.60
4677;DHT22;2352;48.180;11.478;2023-01-28T10:34:41;4.70;96.50
4677;DHT22;2352;48.180;11.478;2023-01-28T10:37:44;4.80;96.10
4677;DHT22;2352;48.180;11.478;2023-01-28T10:40:47;4.80;95.70
4677;DHT22;2352;48.180;11.478;2023-01-28T10:43:50;4.80;95.20
4677;DHT22;2352;48.180;11.478;2023-01-28T10:46:56;4.80;95.20
4677;DHT22;2352;48.180;11.478;2023-01-28T10:50:03;4.80;95.60
4677;DHT22;2352;48.180;11.478;2023-01-28T10:53:07;4.90;95.20
4677;DHT22;2352;48.180;11.478;2023-01-28T10:56:12;4.90;95.30
4677;DHT22;2352;48.180;11.478;2023-01-28T10:59:24;4.90;95.10
4677;DHT22;2352;48.180;11.478;2023-01-28T11:02:32;4.80;95.10
4677;DHT22;2352;48.180;11.478;2023-01-28T11:05:37;4.70;95.40
4677;DHT22;2352;48.180;11.478;2023-01-28T11:08:43;4.60;95.50
4677;DHT22;2352;48.180;11.478;2023-01-28T11:11:46;4.60;95.70
4677;DHT22;2352;48.180;11.478;2023-01-28T11:14:50;4.80;95.70
4677;DHT22;2352;48.180;11.478;2023-01-28T11:17:57;5.10;99.80
4677;DHT22;2352;48.180;11.478;2023-01-28T11:21:05;5.20;96.10
4677;DHT22;2352;48.180;11.478;2023-01-28T11:24:14;5.10;95.20
4677;DHT22;2352;48.180;11.478;2023-01-28T11:27:20;5.20;95.30
4677;DHT22;2352;48.180;11.478;2023-01-28T11:30:27;5.30;95.30
4677;DHT22;2352;48.180;11.478;2023-01-28T11:33:36;5.30;96.40
4677;DHT22;2352;48.180;11.478;2023-01-28T11:36:49;5.40;96.30
4677;DHT22;2352;48.180;11.478;2023-01-28T11:40:03;5.40;95.80
4677;DHT22;2352;48.180;11.478;2023-01-28T11:43:07;5.50;96.30
4677;DHT22;2352;48.180;11.478;2023-01-28T11:46:33;5.40;94.80
4677;DHT22;2352;48.180;11.478;2023-01-28T11:50:07;5.40;95.20
4677;DHT22;2352;48.180;11.478;2023-01-28T11:53:43;5.20;94.80
4677;DHT22;2352;48.180;11.478;2023-01-28T11:57:08;5.30;96.60
4677;DHT22;2352;48.180;11.478;2023-01-28T12:00:27;5.30;95.90
4677;DHT22;2352;48.180;11.478;2023-01-28T12:03:45;5.30;95.10
4677;DHT22;2352;48.180;11.478;2023-01-28T12:07:09;5.20;95.50
4677;DHT22;2352;48.180;11.478;2023-01-28T12:10:18;5.00;95.60
4677;DHT22;2352;48.180;11.478;2023-01-28T12:13:34;5.10;96.10
4677;DHT22;2352;48.180;11.478;2023-01-28T12:16:48;5.20;95.80
4677;DHT22;2352;48.180;11.478;2023-01-28T12:20:02;5.10;95.60
4677;DHT22;2352;48.180;11.478;2023-01-28T12:23:24;5.10;95.30
4677;DHT22;2352;48.180;11.478;2023-01-28T12:26:34;5.10;95.20
4677;DHT22;2352;48.180;11.478;2023-01-28T12:29:49;5.00;94.40
4677;DHT22;2352;48.180;11.478;2023-01-28T12:33:10;5.00;95.20
4677;DHT22;2352;48.180;11.478;2023-01-28T12:36:28;4.90;94.50
4677;DHT22;2352;48.180;11.478;2023-01-28T12:39:45;5.10;94.80
4677;DHT22;2352;48.180;11.478;2023-01-28T12:42:55;5.10;94.70
4677;DHT22;2352;48.180;11.478;2023-01-28T12:46:02;5.10;94.20
4677;DHT22;2352;48.180;11.478;2023-01-28T12:49:11;5.10;94.70
4677;DHT22;2352;48.180;11.478;2023-01-28T12:52:19;4.90;94.30
4677;DHT22;2352;48.180;11.478;2023-01-28T12:55:35;5.00;94.60
4677;DHT22;2352;48.180;11.478;2023-01-28T12:58:44;5.10;94.30
4677;DHT22;2352;48.180;11.478;2023-01-28T13:01:52;5.10;94.20
4677;DHT22;2352;48.180;11.478;2023-01-28T13:05:03;5.10;94.20
4677;DHT22;2352;48.180;11.478;2023-01-28T13:08:12;5.10;94.20
4677;DHT22;2352;48.180;11.478;2023-01-28T13:11:19;5.10;94.10
4677;DHT22;2352;48.180;11.478;2023-01-28T13:14:26;5.10;94.10
4677;DHT22;2352;48.180;11.478;2023-01-28T13:17:31;5.00;94.30
4677;DHT22;2352;48.180;11.478;2023-01-28T13:20:38;5.10;94.00
4677;DHT22;2352;48.180;11.478;2023-01-28T13:23:49;5.10;94.40
4677;DHT22;2352;48.180;11.478;2023-01-28T13:26:55;5.10;94.30
4677;DHT22;2352;48.180;11.478;2023-01-28T13:30:04;5.10;94.10
4677;DHT22;2352;48.180;11.478;2023-01-28T13:33:26;5.10;93.70
4677;DHT22;2352;48.180;11.478;2023-01-28T13:36:32;5.10;94.10
4677;DHT22;2352;48.180;11.478;2023-01-28T13:39:36;5.20;94.00
4677;DHT22;2352;48.180;11.478;2023-01-28T13:42:40;5.20;93.80
4677;DHT22;2352;48.180;11.478;2023-01-28T13:45:54;5.10;93.70
4677;DHT22;2352;48.180;11.478;2023-01-28T13:48:58;5.10;93.70
4677;DHT22;2352;48.180;11.478;2023-01-28T13:52:07;5.20;94.30
4677;DHT22;2352;48.180;11.478;2023-01-28T13:55:19;5.20;94.40
4677;DHT22;2352;48.180;11.478;2023-01-28T13:59:02;5.20;94.50
4677;DHT22;2352;48.180;11.478;2023-01-28T14:02:33;5.20;93.40
4677;DHT22;2352;48.180;11.478;2023-01-28T14:05:55;4.80;93.50
4677;DHT22;2352;48.180;11.478;2023-01-28T14:09:32;4.80;94.10
4677;DHT22;2352;48.180;11.478;2023-01-28T14:12:53;4.90;94.80
4677;DHT22;2352;48.180;11.478;2023-01-28T14:16:22;5.00;94.60
4677;DHT22;2352;48.180;11.478;2023-01-28T14:19:28;4.90;94.50
4677;DHT22;2352;48.180;11.478;2023-01-28T14:22:33;5.00;94.20
4677;DHT22;2352;48.180;11.478;2023-01-28T14:25:46;5.00;93.60
4677;DHT22;2352;48.180;11.478;2023-01-28T14:29:01;5.00;94.10
4677;DHT22;2352;48.180;11.478;2023-01-28T14:32:12;5.10;93.90
4677;DHT22;2352;48.180;11.478;2023-01-28T14:35:19;5.10;94.00
4677;DHT22;2352;48.180;11.478;2023-01-28T14:38:24;5.10;93.90
4677;DHT22;2352;48.180;11.478;2023-01-28T14:41:27;5.20;93.80
4677;DHT22;2352;48.180;11.478;2023-01-28T14:44:34;5.00;93.80
4677;DHT22;2352;48.180;11.478;2023-01-28T14:54:54;5.10;93.90
4677;DHT22;2352;48.180;11.478;2023-01-28T14:58:02;5.20;94.20
4677;DHT22;2352;48.180;11.478;2023-01-28T15:01:19;5.20;93.70
4677;DHT22;2352;48.180;11.478;2023-01-28T15:04:24;5.20;94.10
4677;DHT22;2352;48.180;11.478;2023-01-28T15:07:28;5.20;94.10
4677;DHT22;2352;48.180;11.478;2023-01-28T15:10:34;5.10;94.30
4677;DHT22;2352;48.180;11.478;2023-01-28T15:13:40;5.20;94.10
4677;DHT22;2352;48.180;11.478;2023-01-28T15:16:47;5.20;93.90
4677;DHT22;2352;48.180;11.478;2023-01-28T15:19:51;5.20;93.90
4677;DHT22;2352;48.180;11.478;2023-01-28T15:22:59;5.30;97.60
4677;DHT22;2352;48.180;11.478;2023-01-28T15:26:06;5.30;95.00
4677;DHT22;2352;48.180;11.478;2023-01-28T15:29:22;5.30;94.20
4677;DHT22;2352;48.180;11.478;2023-01-28T15:32:27;5.30;93.90
4677;DHT22;2352;48.180;11.478;2023-01-28T15:35:31;5.20;93.60
4677;DHT22;2352;48.180;11.478;2023-01-28T15:38:35;5.20;93.40
4677;DHT22;2352;48.180;11.478;2023-01-28T15:41:41;5.20;93.60
4677;DHT22;2352;48.180;11.478;2023-01-28T15:44:48;5.10;93.50
4677;DHT22;2352;48.180;11.478;2023-01-28T15:48:01;5.10;94.20
4677;DHT22;2352;48.180;11.478;2023-01-28T15:51:08;5.10;93.90
4677;DHT22;2352;48.180;11.478;2023-01-28T15:54:20;5.10;93.90
4677;DHT22;2352;48.180;11.478;2023-01-28T15:57:26;4.90;93.70
4677;DHT22;2352;48.180;11.478;2023-01-28T16:00:31;5.00;94.30
4677;DHT22;2352;48.180;11.478;2023-01-28T16:03:35;5.00;94.40
4677;DHT22;2352;48.180;11.478;2023-01-28T16:06:40;5.00;94.50
4677;DHT22;2352;48.180;11.478;2023-01-28T16:09:50;5.00;94.60
4677;DHT22;2352;48.180;11.478;2023-01-28T16:12:57;4.90;94.90
4677;DHT22;2352;48.180;11.478;2023-01-28T16:16:06;5.00;94.90
4677;DHT22;2352;48.180;11.478;2023-01-28T16:19:21;4.90;95.10
4677;DHT22;2352;48.180;11.478;2023-01-28T16:22:32;4.90;95.40
4677;DHT22;2352;48.180;11.478;2023-01-28T16:25:37;4.90;95.50
4677;DHT22;2352;48.180;11.478;2023-01-28T16:28:42;4.90;95.80
4677;DHT22;2352;48.180;11.478;2023-01-28T16:31:45;4.90;95.80
4677;DHT22;2352;48.180;11.478;2023-01-28T16:34:47;4.80;95.90
4677;DHT22;2352;48.180;11.478;2023-01-28T16:37:50;4.80;95.90
4677;DHT22;2352;48.180;11.478;2023-01-28T16:40:55;4.90;96.10
4677;DHT22;2352;48.180;11.478;2023-01-28T16:43:59;4.90;96.00
4677;DHT22;2352;48.180;11.478;2023-01-28T16:47:07;4.90;96.10
4677;DHT22;2352;48.180;11.478;2023-01-28T16:50:11;4.90;96.10
4677;DHT22;2352;48.180;11.478;2023-01-28T16:53:20;4.90;96.00
4677;DHT22;2352;48.180;11.478;2023-01-28T16:56:28;4.90;96.20
4677;DHT22;2352;48.180;11.478;2023-01-28T16:59:46;4.90;96.30
4677;DHT22;2352;48.180;11.478;2023-01-28T17:02:49;5.00;96.20
4677;DHT22;2352;48.180;11.478;2023-01-28T17:05:52;4.90;96.40
4677;DHT22;2352;48.180;11.478;2023-01-28T17:08:55;4.90;96.50
4677;DHT22;2352;48.180;11.478;2023-01-28T17:12:01;4.90;96.80
4677;DHT22;2352;48.180;11.478;2023-01-28T17:15:05;4.90;96.90
4677;DHT22;2352;48.180;11.478;2023-01-28T17:18:08;4.90;97.10
4677;DHT22;2352;48.180;11.478;2023-01-28T17:21:11;4.90;97.10
4677;DHT22;2352;48.180;11.478;2023-01-28T17:24:14;4.90;97.10
4677;DHT22;2352;48.180;11.478;2023-01-28T17:27:19;4.90;97.10
4677;DHT22;2352;48.180;11.478;2023-01-28T17:30:22;4.80;97.30
4677;DHT22;2352;48.180;11.478;2023-01-28T17:33:24;4.80;97.20
4677;DHT22;2352;48.180;11.478;2023-01-28T17:36:27;4.80;97.30
4677;DHT22;2352;48.180;11.478;2023-01-28T17:39:30;4.80;97.50
4677;DHT22;2352;48.180;11.478;2023-01-28T17:42:34;4.90;97.50
4677;DHT22;2352;48.180;11.478;2023-01-28T17:45:37;4.80;97.30
4677;DHT22;2352;48.180;11.478;2023-01-28T17:48:40;4.80;98.00
4677;DHT22;2352;48.180;11.478;2023-01-28T17:51:45;4.80;98.50
4677;DHT22;2352;48.180;11.478;2023-01-28T17:54:49;4.80;97.70
4677;DHT22;2352;48.180;11.478;2023-01-28T17:57:53;4.80;97.50
4677;DHT22;2352;48.180;11.478;2023-01-28T18:00:56;4.80;97.70
4677;DHT22;2352;48.180;11.478;2023-01-28T18:04:00;4.80;97.70
4677;DHT22;2352;48.180;11.478;2023-01-28T18:07:03;4.80;97.90
4677;DHT22;2352;48.180;11.478;2023-01-28T18:10:11;4.80;97.70
4677;DHT22;2352;48.180;11.478;2023-01-28T18:13:15;4.80;98.00
4677;DHT22;2352;48.180;11.478;2023-01-28T18:16:19;4.80;97.70
4677;DHT22;2352;48.180;11.478;2023-01-28T18:19:22;4.70;97.90
4677;DHT22;2352;48.180;11.478;2023-01-28T18:22:25;4.80;98.00
4677;DHT22;2352;48.180;11.478;2023-01-28T18:25:28;4.90;97.70
4677;DHT22;2352;48.180;11.478;2023-01-28T18:28:32;4.80;97.70
4677;DHT22;2352;48.180;11.478;2023-01-28T18:31:35;4.80;97.80
4677;DHT22;2352;48.180;11.478;2023-01-28T18:34:38;4.80;98.00
4677;DHT22;2352;48.180;11.478;2023-01-28T18:37:41;4.90;97.90
4677;DHT22;2352;48.180;11.478;2023-01-28T18:40:44;4.80;97.80
4677;DHT22;2352;48.180;11.478;2023-01-28T18:43:49;4.90;97.90
4677;DHT22;2352;48.180;11.478;2023-01-28T18:46:52;4.90;97.80
4677;DHT22;2352;48.180;11.478;2023-01-28T18:49:54;4.80;97.70
4677;DHT22;2352;48.180;11.478;2023-01-28T18:52:57;4.80;97.70
4677;DHT22;2352;48.180;11.478;2023-01-28T18:56:02;4.80;97.70
4677;DHT22;2352;48.180;11.478;2023-01-28T18:59:09;4.70;97.80
4677;DHT22;2352;48.180;11.478;2023-01-28T19:02:13;4.80;98.00
4677;DHT22;2352;48.180;11.478;2023-01-28T19:05:16;4.70;97.90
4677;DHT22;2352;48.180;11.478;2023-01-28T19:08:19;4.80;97.90
4677;DHT22;2352;48.180;11.478;2023-01-28T19:11:24;4.80;97.80
4677;DHT22;2352;48.180;11.478;2023-01-28T19:14:28;4.70;97.60
4677;DHT22;2352;48.180;11.478;2023-01-28T19:17:31;4.70;97.90
4677;DHT22;2352;48.180;11.478;2023-01-28T19:20:36;4.70;98.30
4677;DHT22;2352;48.180;11.478;2023-01-28T19:23:40;4.80;98.40
4677;DHT22;2352;48.180;11.478;2023-01-28T19:26:50;4.60;97.90
4677;DHT22;2352;48.180;11.478;2023-01-28T19:29:55;4.70;97.90
4677;DHT22;2352;48.180;11.478;2023-01-28T19:32:57;4.70;98.00
4677;DHT22;2352;48.180;11.478;2023-01-28T19:36:01;4.70;97.90
4677;DHT22;2352;48.180;11.478;2023-01-28T19:39:06;4.70;98.20
4677;DHT22;2352;48.180;11.478;2023-01-28T19:42:09;4.70;98.20
4677;DHT22;2352;48.180;11.478;2023-01-28T19:45:14;4.70;98.10
4677;DHT22;2352;48.180;11.478;2023-01-28T19:48:17;4.70;97.90
4677;DHT22;2352;48.180;11.478;2023-01-28T19:51:21;4.70;98.00
4677;DHT22;2352;48.180;11.478;2023-01-28T19:54:24;4.70;97.80
4677;DHT22;2352;48.180;11.478;2023-01-28T19:57:27;4.70;98.00
4677;DHT22;2352;48.180;11.478;2023-01-28T20:00:31;4.70;98.30
4677;DHT22;2352;48.180;11.478;2023-01-28T20:03:35;4.70;98.10
4677;DHT22;2352;48.180;11.478;2023-01-28T20:06:38;4.70;98.00
4677;DHT22;2352;48.180;11.478;2023-01-28T20:09:41;4.70;97.80
4677;DHT22;2352;48.180;11.478;2023-01-28T20:12:44;4.70;97.50
4677;DHT22;2352;48.180;11.478;2023-01-28T20:15:48;4.70;97.50
4677;DHT22;2352;48.180;11.478;2023-01-28T20:18:53;4.70;97.60
4677;DHT22;2352;48.180;11.478;2023-01-28T20:21:56;4.70;97.70
4677;DHT22;2352;48.180;11.478;2023-01-28T20:24:59;4.70;97.50
4677;DHT22;2352;48.180;11.478;2023-01-28T20:28:02;4.80;97.50